Allwood, New Jersey
Current Conditions -  °F | °C
As of 7:05 PM on Monday 22 Dec 2014 (Local Time) from KTEB Reporting Station
Light Rain Light Rain  
Wind Chill: 45°   Ceiling: 1300
Heat Index: 45°   Visibility: 6mi
Dew Point: 39°   Wind: 3mph
Humidity: 81%   Direction: 50°NE
Pressure: 30.22"   Gusts: NA
Location:  40.8469°N, 74.1593°W
Report Text: KTEB 230005Z 05003KT 6SM -RA BR OVC013 07/04 A3022 RMK AO2 P0000 $
Loading
Personal Weather Stations






























Interactive Weather Map New forecast layout! Learn more

10-Day Weather Forecast

Advertisements
Track Severe Weather on mobile